Terminal Aerodrome Forecast
Issued by NWS

Home | Current Version | Previous Version | Text Only | Print | Product List | Glossary On
Versions: 1 2 3 4 5 6 7 8 9 10 11 12 13 14 15 16 17 18 19 20 21 22 23 24 25 26 27 28 29 30 31 32 33 34 35 36 37 38 39 40 41 42 43 44 45 46 47 48 49 50
000
FTUS44 KHGX 281723
TAFUTS
TAF
KUTS 281723Z 2818/2918 VRB05KT P6SM SCT035 BKN100
     FM282200 18007KT P6SM VCTS SCT035CB
      TEMPO 2822/2902 VRB25KT 4SM TSRA BKN027CB
     FM290400 VRB05KT P6SM VCSH SCT025 BKN050
     FM291000 VRB02KT P6SM VCTS BKN035CB=

USA.gov is the U.S. government's official web portal to all federal, state and local government web resources and services.